Time;durP1;ratioP1;P1;durP2;ratioP2;P2;SDS_P1;SDS_P2;PMS_P1;PMS_P2;Temp;Humidity;BMP_temperature;BMP_pressure;BME280_temperature;BME280_humidity;BME280_pressure;Samples;Min_cycle;Max_cycle;Signal;HPM_P1;HPM_P2
2022/03/21 00:00:31;;;;;;;19.00;12.20;;;;;;;;;;4978202;28;20425;-52
2022/03/21 00:02:58;;;;;;;17.03;11.90;;;;;;;;;;4981234;28;20434;-53
2022/03/21 00:05:24;;;;;;;15.13;11.93;;;;;;;;;;4983003;28;20955;-53
2022/03/21 00:07:50;;;;;;;20.47;12.30;;;;;;;;;;4979932;28;20415;-53
2022/03/21 00:10:16;;;;;;;24.30;12.20;;;;;;;;;;4981752;28;20434;-53
2022/03/21 00:12:42;;;;;;;19.20;13.13;;;;;;;;;;4980718;28;20770;-52
2022/03/21 00:15:11;;;;;;;19.47;12.23;;;;;;;;;;4977926;28;20945;-54
2022/03/21 00:17:40;;;;;;;15.67;11.33;;;;;;;;;;4978642;28;20430;-53
2022/03/21 00:20:07;;;;;;;18.30;11.23;;;;;;;;;;4981322;28;20498;-54
2022/03/21 00:22:33;;;;;;;17.50;11.53;;;;;;;;;;4963716;28;20837;-53
2022/03/21 00:24:59;;;;;;;15.47;11.10;;;;;;;;;;4982802;28;20425;-52
2022/03/21 00:27:25;;;;;;;16.00;11.57;;;;;;;;;;4985016;28;20418;-53
2022/03/21 00:29:51;;;;;;;18.43;12.20;;;;;;;;;;4982785;28;20425;-52
2022/03/21 00:32:18;;;;;;;17.13;11.93;;;;;;;;;;4981821;28;20458;-53
2022/03/21 00:34:44;;;;;;;16.80;11.40;;;;;;;;;;4982773;28;20415;-53
2022/03/21 00:37:12;;;;;;;21.33;13.17;;;;;;;;;;4983517;28;20465;-54
2022/03/21 00:39:39;;;;;;;17.67;12.30;;;;;;;;;;4981842;28;20430;-53
2022/03/21 00:42:05;;;;;;;17.67;10.60;;;;;;;;;;4984771;28;20434;-53
2022/03/21 00:44:31;;;;;;;19.37;11.40;;;;;;;;;;4984837;28;20422;-51
2022/03/21 00:46:57;;;;;;;20.80;11.97;;;;;;;;;;4981791;28;20441;-53
2022/03/21 00:49:23;;;;;;;24.10;13.60;;;;;;;;;;4981171;28;20435;-53
2022/03/21 00:51:49;;;;;;;14.87;10.57;;;;;;;;;;4983205;28;20446;-52
2022/03/21 00:54:15;;;;;;;18.27;13.23;;;;;;;;;;4984173;28;20465;-52
2022/03/21 00:56:41;;;;;;;16.03;11.40;;;;;;;;;;4991129;28;20832;-52
2022/03/21 00:59:08;;;;;;;13.57;10.57;;;;;;;;;;4984708;28;20569;-52
2022/03/21 01:01:34;;;;;;;16.70;11.93;;;;;;;;;;4984597;28;20933;-53
2022/03/21 01:04:00;;;;;;;16.73;11.60;;;;;;;;;;4981109;28;20824;-53
2022/03/21 01:06:26;;;;;;;28.37;13.13;;;;;;;;;;4981145;28;20423;-53
2022/03/21 01:08:52;;;;;;;26.77;13.23;;;;;;;;;;4984652;28;20290;-53
2022/03/21 01:11:18;;;;;;;14.30;10.70;;;;;;;;;;4981266;28;20421;-53
2022/03/21 01:13:44;;;;;;;18.47;11.10;;;;;;;;;;4988558;28;20438;-53
2022/03/21 01:16:10;;;;;;;15.53;11.70;;;;;;;;;;4980725;28;20471;-52
2022/03/21 01:18:36;;;;;;;19.20;10.63;;;;;;;;;;4963601;28;20832;-53
2022/03/21 01:21:02;;;;;;;16.67;11.23;;;;;;;;;;4984244;28;20469;-52
2022/03/21 01:23:28;;;;;;;14.00;10.93;;;;;;;;;;4984456;28;20426;-53
2022/03/21 01:25:54;;;;;;;17.57;11.60;;;;;;;;;;4981673;28;20761;-53
2022/03/21 01:28:21;;;;;;;16.47;11.00;;;;;;;;;;4986133;28;20952;-53
2022/03/21 01:30:47;;;;;;;14.80;11.47;;;;;;;;;;4975827;28;20438;-53
2022/03/21 01:33:13;;;;;;;18.67;11.70;;;;;;;;;;4966565;28;20442;-54
2022/03/21 01:35:39;;;;;;;21.10;11.57;;;;;;;;;;4983062;28;20461;-51
2022/03/21 01:38:05;;;;;;;14.03;10.63;;;;;;;;;;4979966;28;20457;-51
2022/03/21 01:40:31;;;;;;;13.13;10.40;;;;;;;;;;4984010;28;20422;-53
2022/03/21 01:42:57;;;;;;;15.77;11.90;;;;;;;;;;4981412;28;20466;-53
2022/03/21 01:45:28;;;;;;;18.67;11.70;;;;;;;;;;4983918;28;20446;-53
2022/03/21 01:47:54;;;;;;;19.73;12.10;;;;;;;;;;4975666;28;20450;-52
2022/03/21 01:50:20;;;;;;;14.30;11.03;;;;;;;;;;4983903;28;20430;-53
2022/03/21 01:52:46;;;;;;;15.30;10.80;;;;;;;;;;4981992;28;20947;-53
2022/03/21 01:57:59;;;;;;;19.70;10.70;;;;;;;;;;4988233;28;20469;-54
2022/03/21 02:00:26;;;;;;;15.50;10.43;;;;;;;;;;4980167;28;20944;-52
2022/03/21 02:02:52;;;;;;;17.13;11.90;;;;;;;;;;4987749;28;20433;-52
2022/03/21 02:05:18;;;;;;;14.73;11.03;;;;;;;;;;4980252;28;20455;-52
2022/03/21 02:07:45;;;;;;;18.03;11.63;;;;;;;;;;4981107;28;20953;-53
2022/03/21 02:10:11;;;;;;;15.27;10.87;;;;;;;;;;4983413;28;20422;-53
2022/03/21 02:12:37;;;;;;;15.43;11.07;;;;;;;;;;4982934;28;20437;-53
2022/03/21 02:15:03;;;;;;;16.87;12.33;;;;;;;;;;4979806;28;20427;-53
2022/03/21 02:17:30;;;;;;;18.50;12.40;;;;;;;;;;4979875;28;20514;-53
2022/03/21 02:19:57;;;;;;;15.77;11.50;;;;;;;;;;4987341;28;20930;-53
2022/03/21 02:22:28;;;;;;;24.73;12.10;;;;;;;;;;4979705;28;20427;-53
2022/03/21 02:25:00;;;;;;;20.67;11.80;;;;;;;;;;4982172;28;20423;-53
2022/03/21 02:27:27;;;;;;;16.97;11.80;;;;;;;;;;4982998;28;20441;-54
2022/03/21 02:29:55;;;;;;;16.87;10.93;;;;;;;;;;4980449;28;20437;-53
2022/03/21 02:32:21;;;;;;;18.00;10.80;;;;;;;;;;4979476;28;20454;-54
2022/03/21 02:34:48;;;;;;;15.83;9.90;;;;;;;;;;4980038;28;20918;-53
2022/03/21 02:37:16;;;;;;;14.90;11.30;;;;;;;;;;4974576;28;20496;-53
2022/03/21 02:39:43;;;;;;;15.57;11.60;;;;;;;;;;4980145;28;20431;-53
2022/03/21 02:42:09;;;;;;;26.00;12.03;;;;;;;;;;4982542;28;20426;-53
2022/03/21 02:44:35;;;;;;;18.97;12.30;;;;;;;;;;4982596;28;20787;-52
2022/03/21 02:47:01;;;;;;;15.60;10.37;;;;;;;;;;4982468;28;20508;-53
2022/03/21 02:49:28;;;;;;;12.60;10.30;;;;;;;;;;4982578;28;20426;-53
2022/03/21 02:51:54;;;;;;;18.40;11.57;;;;;;;;;;4979692;28;20824;-52
2022/03/21 02:54:22;;;;;;;14.13;10.33;;;;;;;;;;4978847;28;20473;-53
2022/03/21 02:56:48;;;;;;;15.30;11.13;;;;;;;;;;4987447;28;20474;-53
2022/03/21 02:59:16;;;;;;;17.43;10.80;;;;;;;;;;4982378;28;20782;-53
2022/03/21 03:01:42;;;;;;;14.83;11.17;;;;;;;;;;4981507;28;20461;-53
2022/03/21 03:04:08;;;;;;;14.97;10.27;;;;;;;;;;4979008;28;20792;-52
2022/03/21 03:06:34;;;;;;;18.00;10.70;;;;;;;;;;4978981;28;20521;-53
2022/03/21 03:09:00;;;;;;;18.80;11.60;;;;;;;;;;4974823;28;20454;-52
2022/03/21 03:11:26;;;;;;;11.70;9.73;;;;;;;;;;4978742;28;20423;-52
2022/03/21 03:13:52;;;;;;;14.87;10.70;;;;;;;;;;4980848;28;20439;-53
2022/03/21 03:16:19;;;;;;;13.83;10.47;;;;;;;;;;4982182;28;20553;-53
2022/03/21 03:18:45;;;;;;;13.77;10.00;;;;;;;;;;4980815;28;20426;-53
2022/03/21 03:21:13;;;;;;;15.63;9.90;;;;;;;;;;4978462;28;20585;-53
2022/03/21 03:23:41;;;;;;;16.50;11.40;;;;;;;;;;4979175;28;20458;-53
2022/03/21 03:26:07;;;;;;;16.50;10.87;;;;;;;;;;4981746;28;20533;-52
2022/03/21 03:28:33;;;;;;;13.20;9.17;;;;;;;;;;4978309;28;20489;-52
2022/03/21 03:31:00;;;;;;;15.67;10.57;;;;;;;;;;4979069;28;20482;-53
2022/03/21 03:33:26;;;;;;;15.50;9.93;;;;;;;;;;4978694;28;20898;-52
2022/03/21 03:35:52;;;;;;;18.80;11.20;;;;;;;;;;4980851;28;20873;-53
2022/03/21 03:38:19;;;;;;;14.77;10.03;;;;;;;;;;4981878;28;20432;-52
2022/03/21 03:40:45;;;;;;;15.30;9.80;;;;;;;;;;4980665;28;20426;-52
2022/03/21 03:43:12;;;;;;;14.30;10.63;;;;;;;;;;4982978;28;20449;-53
2022/03/21 03:45:38;;;;;;;14.63;10.40;;;;;;;;;;4963910;28;20524;-52
2022/03/21 03:48:05;;;;;;;15.53;10.40;;;;;;;;;;4978545;28;20458;-53
2022/03/21 03:50:31;;;;;;;15.10;10.77;;;;;;;;;;4978423;28;20430;-52
2022/03/21 03:52:57;;;;;;;17.30;9.50;;;;;;;;;;4981038;28;20474;-52
2022/03/21 03:55:23;;;;;;;17.70;10.50;;;;;;;;;;4981809;28;20469;-51
2022/03/21 03:57:49;;;;;;;20.20;11.00;;;;;;;;;;4987997;28;20935;-53
2022/03/21 04:00:16;;;;;;;17.50;11.03;;;;;;;;;;4983600;28;20505;-53
2022/03/21 04:05:28;;;;;;;18.87;10.37;;;;;;;;;;4982629;28;20422;-52
2022/03/21 04:07:54;;;;;;;16.50;10.90;;;;;;;;;;4984601;28;20454;-52
2022/03/21 04:10:21;;;;;;;17.50;11.40;;;;;;;;;;4985550;28;20437;-53
2022/03/21 04:12:48;;;;;;;15.47;10.13;;;;;;;;;;4984023;28;20426;-53
2022/03/21 04:15:14;;;;;;;14.83;9.80;;;;;;;;;;4985727;28;20814;-52
2022/03/21 04:17:40;;;;;;;23.37;11.50;;;;;;;;;;4982529;28;20438;-53
2022/03/21 04:20:07;;;;;;;15.80;9.77;;;;;;;;;;4985533;28;20414;-53
2022/03/21 04:22:36;;;;;;;18.93;10.97;;;;;;;;;;4985421;28;20453;-53
2022/03/21 04:25:07;;;;;;;17.90;10.23;;;;;;;;;;4985489;28;20425;-53
2022/03/21 04:27:33;;;;;;;12.23;9.03;;;;;;;;;;4985432;28;20938;-53
2022/03/21 04:29:59;;;;;;;20.27;11.97;;;;;;;;;;4978108;28;20485;-53
2022/03/21 04:32:25;;;;;;;12.40;8.60;;;;;;;;;;4980170;28;20847;-54
2022/03/21 04:34:51;;;;;;;12.13;9.43;;;;;;;;;;4966457;28;20455;-53
2022/03/21 04:37:17;;;;;;;14.53;10.00;;;;;;;;;;4983044;28;20489;-52
2022/03/21 04:39:43;;;;;;;12.50;9.30;;;;;;;;;;4982630;28;20427;-53
2022/03/21 04:42:10;;;;;;;13.87;10.30;;;;;;;;;;4985062;28;20422;-53
2022/03/21 04:44:36;;;;;;;14.93;9.90;;;;;;;;;;4984649;28;20422;-53
2022/03/21 04:47:02;;;;;;;16.67;10.17;;;;;;;;;;4973789;28;20477;-52
2022/03/21 04:49:28;;;;;;;16.40;11.50;;;;;;;;;;4981542;28;20458;-53
2022/03/21 04:51:54;;;;;;;13.07;9.57;;;;;;;;;;4988368;28;20440;-52
2022/03/21 04:54:20;;;;;;;14.70;10.47;;;;;;;;;;4974211;28;20842;-53
2022/03/21 04:56:46;;;;;;;14.97;10.97;;;;;;;;;;4992097;28;21022;-53
2022/03/21 04:59:12;;;;;;;15.20;10.27;;;;;;;;;;4982556;28;20784;-53
2022/03/21 05:01:38;;;;;;;17.73;10.50;;;;;;;;;;4981593;28;20442;-55
2022/03/21 05:04:04;;;;;;;13.47;10.30;;;;;;;;;;4987711;28;20430;-53
2022/03/21 05:06:30;;;;;;;17.80;10.80;;;;;;;;;;4992383;28;20433;-53
2022/03/21 05:08:59;;;;;;;17.57;10.50;;;;;;;;;;4982363;28;20433;-54
2022/03/21 05:11:25;;;;;;;16.57;10.10;;;;;;;;;;4986649;28;20952;-52
2022/03/21 05:13:51;;;;;;;16.03;10.10;;;;;;;;;;4987490;28;20936;-53
2022/03/21 05:16:17;;;;;;;12.77;10.33;;;;;;;;;;4984970;28;20539;-54
2022/03/21 05:18:44;;;;;;;15.17;10.30;;;;;;;;;;4985640;28;20426;-54
2022/03/21 05:21:10;;;;;;;14.47;10.03;;;;;;;;;;4988604;28;20454;-53
2022/03/21 05:31:50;;;;;;;15.33;9.87;;;;;;;;;;4989456;28;20449;-55
2022/03/21 05:37:01;;;;;;;14.27;10.10;;;;;;;;;;4984689;28;20493;-61
2022/03/21 05:39:26;;;;;;;14.30;10.77;;;;;;;;;;4987308;28;20475;-58
2022/03/21 05:41:53;;;;;;;19.90;9.80;;;;;;;;;;4988417;28;20917;-58
2022/03/21 05:44:20;;;;;;;14.80;9.17;;;;;;;;;;4985614;28;20820;-59
2022/03/21 05:46:47;;;;;;;13.37;9.10;;;;;;;;;;4985611;28;20521;-57
2022/03/21 05:49:13;;;;;;;14.10;9.37;;;;;;;;;;4986134;28;20923;-58
2022/03/21 05:51:43;;;;;;;15.17;10.37;;;;;;;;;;4988834;28;20928;-57
2022/03/21 05:54:13;;;;;;;15.20;10.20;;;;;;;;;;4985811;28;20473;-56
2022/03/21 05:56:40;;;;;;;11.77;8.77;;;;;;;;;;4986153;28;20461;-59
2022/03/21 06:01:52;;;;;;;14.23;9.60;;;;;;;;;;4984683;28;20429;-61
2022/03/21 06:04:18;;;;;;;14.17;10.10;;;;;;;;;;4984156;28;20426;-55
2022/03/21 06:06:45;;;;;;;12.17;9.90;;;;;;;;;;4984621;28;20427;-57
2022/03/21 06:09:11;;;;;;;13.60;10.23;;;;;;;;;;4986528;28;20451;-57
2022/03/21 06:11:37;;;;;;;26.10;9.53;;;;;;;;;;4989123;28;21267;-57
2022/03/21 06:14:07;;;;;;;13.13;10.20;;;;;;;;;;4988274;28;20431;-57
2022/03/21 06:16:33;;;;;;;13.70;10.00;;;;;;;;;;4985788;28;20468;-57
2022/03/21 06:19:00;;;;;;;16.73;10.73;;;;;;;;;;4979392;28;20522;-57
2022/03/21 06:21:28;;;;;;;14.40;10.13;;;;;;;;;;4978640;28;20419;-57
2022/03/21 06:23:54;;;;;;;17.60;9.97;;;;;;;;;;4980909;28;20433;-57
2022/03/21 06:26:20;;;;;;;18.10;10.50;;;;;;;;;;4982016;28;20508;-56
2022/03/21 06:28:47;;;;;;;12.97;9.73;;;;;;;;;;4981387;28;20430;-56
2022/03/21 06:31:13;;;;;;;13.30;9.73;;;;;;;;;;4979637;28;20423;-57
2022/03/21 06:33:40;;;;;;;16.80;10.83;;;;;;;;;;4980214;28;20505;-57
2022/03/21 06:36:06;;;;;;;12.30;9.03;;;;;;;;;;4982892;28;20458;-57
2022/03/21 06:38:32;;;;;;;13.57;9.60;;;;;;;;;;4982850;28;20426;-56
2022/03/21 06:40:59;;;;;;;12.40;9.90;;;;;;;;;;4962230;28;20930;-57
2022/03/21 06:43:26;;;;;;;12.87;9.30;;;;;;;;;;4979178;28;20433;-57
2022/03/21 06:45:54;;;;;;;16.30;10.80;;;;;;;;;;4981575;28;20427;-57
2022/03/21 06:48:21;;;;;;;15.50;10.33;;;;;;;;;;4982712;28;20925;-57
2022/03/21 06:50:47;;;;;;;13.97;10.70;;;;;;;;;;4981276;28;20469;-57
2022/03/21 06:53:14;;;;;;;13.20;10.30;;;;;;;;;;4979066;28;20474;-57
2022/03/21 06:55:40;;;;;;;14.63;10.77;;;;;;;;;;4980148;28;20466;-57
2022/03/21 06:58:09;;;;;;;14.17;9.73;;;;;;;;;;4986495;28;20818;-57
2022/03/21 07:00:35;;;;;;;17.53;11.30;;;;;;;;;;4979359;28;20427;-57
2022/03/21 07:03:01;;;;;;;14.50;11.10;;;;;;;;;;4982541;28;20515;-57
2022/03/21 07:05:28;;;;;;;16.87;11.57;;;;;;;;;;4982336;28;20920;-57
2022/03/21 07:07:54;;;;;;;16.67;10.20;;;;;;;;;;4977721;28;20426;-57
2022/03/21 07:10:20;;;;;;;14.00;11.13;;;;;;;;;;4982427;28;20426;-57
2022/03/21 07:12:46;;;;;;;13.47;10.10;;;;;;;;;;4980528;28;20426;-58
2022/03/21 07:15:12;;;;;;;14.67;10.03;;;;;;;;;;4978967;28;20512;-58
2022/03/21 07:17:42;;;;;;;11.83;9.60;;;;;;;;;;4979253;28;20184;-57
2022/03/21 07:20:08;;;;;;;22.10;10.53;;;;;;;;;;4982222;28;20434;-57
2022/03/21 07:22:34;;;;;;;13.07;9.57;;;;;;;;;;4982190;28;20430;-57
2022/03/21 07:25:01;;;;;;;13.67;10.80;;;;;;;;;;4978769;28;20428;-57
2022/03/21 07:27:27;;;;;;;12.57;9.70;;;;;;;;;;4961135;28;20831;-57
2022/03/21 07:29:53;;;;;;;15.20;11.30;;;;;;;;;;4980817;28;20453;-57
2022/03/21 07:32:19;;;;;;;12.13;9.83;;;;;;;;;;4982203;28;20909;-57
2022/03/21 07:34:45;;;;;;;18.00;11.37;;;;;;;;;;4979940;28;20426;-57
2022/03/21 07:37:11;;;;;;;14.80;10.03;;;;;;;;;;4960336;28;20634;-57
2022/03/21 07:39:39;;;;;;;15.80;10.23;;;;;;;;;;4978366;28;20446;-57
2022/03/21 07:42:07;;;;;;;11.37;10.17;;;;;;;;;;4981898;28;20986;-57
2022/03/21 07:47:20;;;;;;;12.33;10.10;;;;;;;;;;4984322;28;20509;-57
2022/03/21 07:49:47;;;;;;;17.00;10.60;;;;;;;;;;4979877;28;20888;-57
2022/03/21 07:52:13;;;;;;;11.20;9.77;;;;;;;;;;4981554;28;20418;-57
2022/03/21 07:54:40;;;;;;;18.37;9.60;;;;;;;;;;4981090;28;20474;-57
2022/03/21 07:57:06;;;;;;;12.10;10.03;;;;;;;;;;4982401;28;20477;-57
2022/03/21 07:59:32;;;;;;;13.70;9.37;;;;;;;;;;4981641;28;20792;-57
2022/03/21 08:01:58;;;;;;;14.67;10.20;;;;;;;;;;4978612;28;20493;-57
2022/03/21 08:04:25;;;;;;;13.50;8.87;;;;;;;;;;4978415;28;20427;-57
2022/03/21 08:06:57;;;;;;;14.93;11.23;;;;;;;;;;4979992;28;20423;-57
2022/03/21 08:09:24;;;;;;;14.57;10.10;;;;;;;;;;4978785;28;20429;-57
2022/03/21 08:11:51;;;;;;;12.13;9.90;;;;;;;;;;4980231;28;20435;-57
2022/03/21 08:14:17;;;;;;;14.77;9.60;;;;;;;;;;4981545;28;20430;-57
2022/03/21 08:16:44;;;;;;;10.60;9.47;;;;;;;;;;4980492;28;20476;-57
2022/03/21 08:19:10;;;;;;;13.57;10.33;;;;;;;;;;4978105;28;20435;-57
2022/03/21 08:21:36;;;;;;;13.97;9.70;;;;;;;;;;4978108;28;20485;-57
2022/03/21 08:24:03;;;;;;;13.47;10.07;;;;;;;;;;4981430;28;20423;-57
2022/03/21 08:26:29;;;;;;;13.33;10.03;;;;;;;;;;4981559;28;20814;-57
2022/03/21 08:28:55;;;;;;;13.70;9.90;;;;;;;;;;4978814;28;20849;-56
2022/03/21 08:31:21;;;;;;;14.07;10.60;;;;;;;;;;4977991;28;20423;-57
2022/03/21 08:33:47;;;;;;;11.73;10.03;;;;;;;;;;4979649;28;20433;-57
2022/03/21 08:36:14;;;;;;;15.37;10.93;;;;;;;;;;4981399;28;20466;-57
2022/03/21 08:38:40;;;;;;;15.10;10.60;;;;;;;;;;4980810;28;20901;-57
2022/03/21 08:41:06;;;;;;;19.57;11.17;;;;;;;;;;4977988;28;20427;-57
2022/03/21 08:43:32;;;;;;;18.43;11.33;;;;;;;;;;4978073;28;20449;-57
2022/03/21 08:45:58;;;;;;;12.83;10.10;;;;;;;;;;4982360;28;20430;-57
2022/03/21 08:49:23;;;;;;;16.43;10.77;;;;;;;;;;4984867;28;20484;-57
2022/03/21 08:51:10;;;;;;;14.90;10.80;;;;;;;;;;4988314;28;20426;-57
2022/03/21 08:53:37;;;;;;;16.30;9.97;;;;;;;;;;4981454;28;20469;-57
2022/03/21 08:56:03;;;;;;;13.50;9.27;;;;;;;;;;4984738;28;20497;-57
2022/03/21 08:58:29;;;;;;;11.80;10.50;;;;;;;;;;4985691;28;20473;-57
2022/03/21 09:00:55;;;;;;;15.67;11.20;;;;;;;;;;4983759;28;20539;-57
2022/03/21 09:03:21;;;;;;;15.27;10.70;;;;;;;;;;4984750;28;20968;-57
2022/03/21 09:05:47;;;;;;;14.57;11.03;;;;;;;;;;4983129;28;20426;-57
2022/03/21 09:08:13;;;;;;;18.63;11.40;;;;;;;;;;4981622;28;20509;-57
2022/03/21 09:10:39;;;;;;;17.20;11.70;;;;;;;;;;4984087;28;20664;-57
2022/03/21 09:13:05;;;;;;;14.60;10.77;;;;;;;;;;4981022;28;20435;-57
2022/03/21 09:15:32;;;;;;;12.37;10.13;;;;;;;;;;4981117;28;20620;-57
2022/03/21 09:17:58;;;;;;;13.40;9.33;;;;;;;;;;4983963;28;20444;-57
2022/03/21 09:20:24;;;;;;;16.30;11.33;;;;;;;;;;4984416;28;20529;-57
2022/03/21 09:22:50;;;;;;;16.13;11.10;;;;;;;;;;4982420;28;20921;-56
2022/03/21 09:25:17;;;;;;;13.53;10.17;;;;;;;;;;4980778;28;20447;-56
2022/03/21 09:27:43;;;;;;;15.40;10.93;;;;;;;;;;4981807;28;20427;-56
2022/03/21 09:30:10;;;;;;;14.47;11.47;;;;;;;;;;4984064;28;20441;-57
2022/03/21 09:32:36;;;;;;;17.00;10.63;;;;;;;;;;4984055;28;20418;-58
2022/03/21 09:35:03;;;;;;;14.43;11.53;;;;;;;;;;4963130;28;20427;-56
2022/03/21 09:37:29;;;;;;;17.43;11.00;;;;;;;;;;4980711;28;20510;-57
2022/03/21 09:39:55;;;;;;;16.87;11.13;;;;;;;;;;4983156;28;20426;-58
2022/03/21 09:42:21;;;;;;;17.20;11.10;;;;;;;;;;4966171;28;20437;-57
2022/03/21 09:44:53;;;;;;;17.87;12.83;;;;;;;;;;4982228;28;20541;-57
2022/03/21 09:50:09;;;;;;;17.80;12.13;;;;;;;;;;4983732;28;20445;-57
2022/03/21 09:52:35;;;;;;;15.53;11.10;;;;;;;;;;4983624;28;20873;-56
2022/03/21 09:55:02;;;;;;;14.20;10.47;;;;;;;;;;4980474;28;20435;-57
2022/03/21 09:57:28;;;;;;;21.33;11.40;;;;;;;;;;4986097;28;20462;-57
2022/03/21 10:00:00;;;;;;;15.30;11.87;;;;;;;;;;4981270;28;20465;-57
2022/03/21 10:02:26;;;;;;;24.33;14.87;;;;;;;;;;4980174;28;20423;-57
2022/03/21 10:04:53;;;;;;;20.67;13.17;;;;;;;;;;4982403;28;20453;-57
2022/03/21 10:07:28;;;;;;;15.47;12.13;;;;;;;;;;4981170;28;20497;-57
2022/03/21 10:10:08;;;;;;;14.97;12.07;;;;;;;;;;4982520;28;20476;-57
2022/03/21 10:12:35;;;;;;;20.83;13.73;;;;;;;;;;4983295;28;20422;-57
2022/03/21 10:15:04;;;;;;;15.57;10.90;;;;;;;;;;4980227;28;20463;-57
2022/03/21 10:17:30;;;;;;;19.07;11.70;;;;;;;;;;4979925;28;20480;-57
2022/03/21 10:19:56;;;;;;;14.97;10.47;;;;;;;;;;4982451;28;20457;-58
2022/03/21 10:22:45;;;;;;;17.33;12.00;;;;;;;;;;4983088;28;20514;-56
2022/03/21 10:25:15;;;;;;;14.40;11.20;;;;;;;;;;4979842;28;20518;-56
2022/03/21 10:27:43;;;;;;;18.00;12.77;;;;;;;;;;4980420;28;20435;-57
2022/03/21 10:30:10;;;;;;;19.53;13.43;;;;;;;;;;4983070;28;20429;-57
2022/03/21 10:32:36;;;;;;;15.20;12.27;;;;;;;;;;4982764;28;20426;-57
2022/03/21 10:35:05;;;;;;;15.27;13.23;;;;;;;;;;4979876;28;20473;-57
2022/03/21 10:37:42;;;;;;;19.43;12.30;;;;;;;;;;4979446;28;20477;-57
2022/03/21 10:40:16;;;;;;;15.60;12.60;;;;;;;;;;4986796;28;20921;-57
2022/03/21 10:42:55;;;;;;;13.83;11.77;;;;;;;;;;4980212;28;20425;-58
2022/03/21 10:45:22;;;;;;;19.20;13.63;;;;;;;;;;4982872;28;20426;-57
2022/03/21 10:47:49;;;;;;;15.53;11.97;;;;;;;;;;4980967;28;20792;-57
2022/03/21 10:50:15;;;;;;;15.83;12.03;;;;;;;;;;4979500;28;20444;-57
2022/03/21 10:52:41;;;;;;;21.80;13.87;;;;;;;;;;4979840;28;20434;-57
2022/03/21 10:55:07;;;;;;;16.07;11.57;;;;;;;;;;4982704;28;20418;-58
2022/03/21 10:57:36;;;;;;;20.37;12.77;;;;;;;;;;4989183;28;20210;-58
2022/03/21 11:00:20;;;;;;;25.60;12.93;;;;;;;;;;4987255;28;20430;-58
2022/03/21 11:02:51;;;;;;;22.07;13.80;;;;;;;;;;4980447;28;20505;-57
2022/03/21 11:05:17;;;;;;;20.03;13.80;;;;;;;;;;4982626;28;20427;-57
2022/03/21 11:07:45;;;;;;;16.83;12.90;;;;;;;;;;4977758;28;20545;-57
2022/03/21 11:10:11;;;;;;;19.30;12.97;;;;;;;;;;4982162;28;20444;-57
2022/03/21 11:12:38;;;;;;;17.30;12.83;;;;;;;;;;4982219;28;20426;-56
2022/03/21 11:15:06;;;;;;;19.50;14.00;;;;;;;;;;4978927;28;20510;-57
2022/03/21 11:17:33;;;;;;;22.67;14.10;;;;;;;;;;4978923;28;20631;-57
2022/03/21 11:19:59;;;;;;;25.23;15.30;;;;;;;;;;4981959;28;20422;-57
2022/03/21 11:22:26;;;;;;;19.53;13.30;;;;;;;;;;4982273;28;20426;-57
2022/03/21 11:24:52;;;;;;;21.60;14.40;;;;;;;;;;4979955;28;20520;-57
2022/03/21 11:27:36;;;;;;;24.37;13.73;;;;;;;;;;4978645;28;20510;-58
2022/03/21 11:30:11;;;;;;;28.93;15.13;;;;;;;;;;4982122;28;20480;-57
2022/03/21 11:32:47;;;;;;;21.40;14.33;;;;;;;;;;4981929;28;20429;-58
2022/03/21 11:35:17;;;;;;;21.50;14.70;;;;;;;;;;4978537;28;20419;-58
2022/03/21 11:37:44;;;;;;;19.33;13.43;;;;;;;;;;4979660;28;20415;-58
2022/03/21 11:40:30;;;;;;;25.60;17.57;;;;;;;;;;4982069;28;20417;-57
2022/03/21 11:43:15;;;;;;;20.57;14.00;;;;;;;;;;4979173;28;20920;-57
2022/03/21 11:45:41;;;;;;;23.90;14.80;;;;;;;;;;4961714;28;20426;-57
2022/03/21 11:48:22;;;;;;;18.30;13.47;;;;;;;;;;4964402;28;20956;-57
2022/03/21 11:50:57;;;;;;;19.70;13.73;;;;;;;;;;4980633;28;20456;-57
2022/03/21 11:53:27;;;;;;;18.37;13.70;;;;;;;;;;4978576;28;20561;-58
2022/03/21 11:55:53;;;;;;;19.03;14.30;;;;;;;;;;4980489;28;20459;-58
2022/03/21 11:58:40;;;;;;;23.30;14.30;;;;;;;;;;4984374;28;20434;-58
2022/03/21 12:01:32;;;;;;;25.90;15.50;;;;;;;;;;4968287;28;20434;-57
2022/03/21 12:04:16;;;;;;;28.10;15.10;;;;;;;;;;4983706;28;20431;-57
2022/03/21 12:06:42;;;;;;;20.63;14.17;;;;;;;;;;4979459;28;20419;-57
2022/03/21 12:09:12;;;;;;;21.00;14.00;;;;;;;;;;4980899;28;20427;-56
2022/03/21 12:11:38;;;;;;;22.33;14.90;;;;;;;;;;4978674;28;20188;-57
2022/03/21 12:14:22;;;;;;;22.77;15.03;;;;;;;;;;4981662;28;20426;-57
2022/03/21 12:16:49;;;;;;;24.23;15.10;;;;;;;;;;4979727;28;20594;-58
2022/03/21 12:19:15;;;;;;;19.27;13.00;;;;;;;;;;4978246;28;20430;-56
2022/03/21 12:21:41;;;;;;;19.77;14.57;;;;;;;;;;4981672;28;20422;-57
2022/03/21 12:24:17;;;;;;;22.50;15.07;;;;;;;;;;4985378;28;20939;-57
2022/03/21 12:26:53;;;;;;;19.70;15.40;;;;;;;;;;4984431;28;20422;-56
2022/03/21 12:29:32;;;;;;;19.60;13.77;;;;;;;;;;4981722;28;20554;-56
2022/03/21 12:32:17;;;;;;;19.90;14.13;;;;;;;;;;4984961;28;20430;-56
2022/03/21 12:34:44;;;;;;;21.47;14.80;;;;;;;;;;4984332;28;20483;-57
2022/03/21 12:37:32;;;;;;;26.77;15.40;;;;;;;;;;4981690;28;20581;-57
2022/03/21 12:40:00;;;;;;;21.90;15.00;;;;;;;;;;4977354;28;20449;-57
2022/03/21 12:42:30;;;;;;;18.40;13.50;;;;;;;;;;4985014;28;20426;-56
2022/03/21 12:44:56;;;;;;;21.13;15.20;;;;;;;;;;4982379;28;20426;-57
2022/03/21 12:47:23;;;;;;;21.70;15.67;;;;;;;;;;4981623;28;20905;-57
2022/03/21 12:49:50;;;;;;;20.63;15.00;;;;;;;;;;4983186;28;20450;-57
2022/03/21 12:52:26;;;;;;;29.20;14.70;;;;;;;;;;4984928;28;20426;-58
2022/03/21 12:54:53;;;;;;;18.33;13.70;;;;;;;;;;4982606;28;20457;-58
2022/03/21 12:57:19;;;;;;;20.67;14.30;;;;;;;;;;4986823;28;20508;-58
2022/03/21 12:59:45;;;;;;;21.33;15.23;;;;;;;;;;4965976;28;20438;-58
2022/03/21 13:02:31;;;;;;;18.37;13.83;;;;;;;;;;4981382;28;20434;-56
2022/03/21 13:10:33;;;;;;;23.60;14.57;;;;;;;;;;4984516;28;20781;-57
2022/03/21 13:13:00;;;;;;;19.07;13.23;;;;;;;;;;4981211;28;20894;-57
2022/03/21 13:15:27;;;;;;;17.33;12.63;;;;;;;;;;4981087;28;20243;-56
2022/03/21 13:17:57;;;;;;;17.07;13.13;;;;;;;;;;4983443;28;20423;-57
2022/03/21 13:20:27;;;;;;;19.30;14.03;;;;;;;;;;4984427;28;20418;-57
2022/03/21 13:22:56;;;;;;;20.30;14.27;;;;;;;;;;4982005;28;20421;-57
2022/03/21 13:25:23;;;;;;;20.10;13.50;;;;;;;;;;4980850;28;20911;-56
2022/03/21 13:27:52;;;;;;;19.70;14.57;;;;;;;;;;4982476;28;20425;-56
2022/03/21 13:30:18;;;;;;;22.30;13.83;;;;;;;;;;4966670;28;20868;-58
2022/03/21 13:32:45;;;;;;;23.27;13.67;;;;;;;;;;4983055;28;20426;-57
2022/03/21 13:35:14;;;;;;;26.97;15.07;;;;;;;;;;4980642;28;20426;-56
2022/03/21 13:37:40;;;;;;;20.60;13.20;;;;;;;;;;4981161;28;20462;-56
2022/03/21 13:40:11;;;;;;;19.70;15.00;;;;;;;;;;4983832;28;20768;-56
2022/03/21 13:42:37;;;;;;;18.83;14.80;;;;;;;;;;4983733;28;20426;-57
2022/03/21 13:45:05;;;;;;;23.20;12.87;;;;;;;;;;4980541;28;20431;-57
2022/03/21 13:47:31;;;;;;;19.87;13.90;;;;;;;;;;4980612;28;20441;-57
2022/03/21 13:50:06;;;;;;;21.30;13.93;;;;;;;;;;4983119;28;20509;-57
2022/03/21 13:52:53;;;;;;;21.07;13.77;;;;;;;;;;4983788;28;20447;-57
2022/03/21 13:55:19;;;;;;;20.10;14.77;;;;;;;;;;4985976;28;20509;-57
2022/03/21 13:57:46;;;;;;;18.73;14.50;;;;;;;;;;4989160;28;20890;-57
2022/03/21 14:00:12;;;;;;;16.50;11.80;;;;;;;;;;4980281;28;20226;-57
2022/03/21 14:02:42;;;;;;;19.53;13.03;;;;;;;;;;4980451;28;20455;-57
2022/03/21 14:05:31;;;;;;;23.17;14.20;;;;;;;;;;4983432;28;20418;-57
2022/03/21 14:08:14;;;;;;;21.70;14.63;;;;;;;;;;4976831;28;20443;-57
2022/03/21 14:10:41;;;;;;;19.03;12.10;;;;;;;;;;4982833;28;20422;-57
2022/03/21 14:13:25;;;;;;;15.93;12.23;;;;;;;;;;4980148;28;20912;-58
2022/03/21 14:15:52;;;;;;;17.30;12.53;;;;;;;;;;4981950;28;21020;-57
2022/03/21 14:18:32;;;;;;;22.10;13.70;;;;;;;;;;4983227;28;20433;-57
2022/03/21 14:21:00;;;;;;;16.23;11.83;;;;;;;;;;4980222;28;20430;-57
2022/03/21 14:23:26;;;;;;;17.80;12.60;;;;;;;;;;4979499;28;20526;-57
2022/03/21 14:28:37;;;;;;;21.40;11.50;;;;;;;;;;4983267;28;20457;-57
2022/03/21 14:31:04;;;;;;;17.07;12.20;;;;;;;;;;4979727;28;20423;-57
2022/03/21 14:33:30;;;;;;;17.97;12.67;;;;;;;;;;4979405;28;20423;-57
2022/03/21 14:35:56;;;;;;;10.63;8.53;;;;;;;;;;4982068;28;20465;-59
2022/03/21 14:38:23;;;;;;;15.87;12.60;;;;;;;;;;4982865;28;20425;-58
2022/03/21 14:40:49;;;;;;;27.00;12.40;;;;;;;;;;4963284;28;20426;-59
2022/03/21 14:43:15;;;;;;;18.30;12.43;;;;;;;;;;4979020;28;20485;-59
2022/03/21 14:45:41;;;;;;;21.30;12.83;;;;;;;;;;4979879;28;20188;-57
2022/03/21 14:48:07;;;;;;;21.73;13.93;;;;;;;;;;4982428;28;20561;-59
2022/03/21 14:50:34;;;;;;;16.10;11.87;;;;;;;;;;4982717;28;20827;-59
2022/03/21 14:53:02;;;;;;;18.00;13.00;;;;;;;;;;4978958;28;20459;-60
2022/03/21 14:55:28;;;;;;;15.87;12.53;;;;;;;;;;4979062;28;20467;-58